createdAt,value
2018-09-24T00:01:50.811Z,80.00
2018-09-24T00:04:20.734Z,79.70
2018-09-24T00:06:50.709Z,80.00
2018-09-24T00:09:20.711Z,80.20
2018-09-24T00:11:50.678Z,80.00
2018-09-24T00:14:20.611Z,79.20
2018-09-24T00:16:51.267Z,78.60
2018-09-24T00:19:21.193Z,79.90
2018-09-24T00:21:51.119Z,79.00
2018-09-24T00:24:21.069Z,78.90
2018-09-24T00:26:51.072Z,78.60
2018-09-24T00:29:21.121Z,78.80
2018-09-24T00:31:51.191Z,79.20
2018-09-24T00:34:21.269Z,79.00
2018-09-24T00:36:51.248Z,77.10
2018-09-24T00:39:21.252Z,77.50
2018-09-24T00:41:51.202Z,77.20
2018-09-24T00:44:21.143Z,78.30
2018-09-24T00:46:51.221Z,78.30
2018-09-24T00:49:21.175Z,79.10
2018-09-24T00:51:51.137Z,79.20
2018-09-24T00:54:21.022Z,79.30
2018-09-24T00:56:51.006Z,79.20
2018-09-24T00:59:20.967Z,79.70
2018-09-24T01:01:50.917Z,79.20
2018-09-24T01:04:21.362Z,78.00
2018-09-24T01:06:51.342Z,77.40
2018-09-24T01:09:21.283Z,77.90
2018-09-24T01:11:51.267Z,79.00
2018-09-24T01:14:21.855Z,78.30
2018-09-24T01:16:51.857Z,79.60
2018-09-24T01:19:21.801Z,79.50
2018-09-24T01:21:51.798Z,79.50
2018-09-24T01:24:21.723Z,79.50
2018-09-24T01:26:51.663Z,79.50
2018-09-24T01:29:21.600Z,79.00
2018-09-24T01:31:51.523Z,79.50
2018-09-24T01:34:21.831Z,79.50
2018-09-24T01:36:51.706Z,78.80
2018-09-24T01:39:21.891Z,78.90
2018-09-24T01:41:51.870Z,78.70
2018-09-24T01:44:21.825Z,78.70
2018-09-24T01:46:51.775Z,79.30
2018-09-24T01:49:21.738Z,78.80
2018-09-24T01:51:51.772Z,78.00
2018-09-24T01:54:27.208Z,78.40
2018-09-24T01:56:57.221Z,77.80
2018-09-24T01:59:27.191Z,78.00
2018-09-24T02:01:57.198Z,78.20
2018-09-24T02:04:27.203Z,78.40
2018-09-24T02:07:01.952Z,78.00
2018-09-24T02:09:32.195Z,78.60
2018-09-24T02:12:05.312Z,79.40
2018-09-24T02:14:36.172Z,79.40
2018-09-24T02:17:06.185Z,79.30
2018-09-24T02:19:36.139Z,79.30
2018-09-24T02:22:06.622Z,79.30
2018-09-24T02:24:36.642Z,79.30
2018-09-24T02:27:08.923Z,79.30
2018-09-24T02:29:40.202Z,77.70
2018-09-24T02:32:10.325Z,77.60
2018-09-24T02:34:40.331Z,77.30
2018-09-24T02:37:17.612Z,77.00
2018-09-24T02:39:47.816Z,77.50
2018-09-24T02:42:17.862Z,77.40
2018-09-24T02:44:54.723Z,77.10
2018-09-24T02:47:25.193Z,77.20
2018-09-24T02:49:55.185Z,78.00
2018-09-24T02:52:25.232Z,77.90
2018-09-24T02:54:55.122Z,78.00
2018-09-24T02:57:25.158Z,78.30
2018-09-24T02:59:55.159Z,77.80
2018-09-24T03:02:25.137Z,78.00
2018-09-24T03:04:57.289Z,79.00
2018-09-24T03:07:27.277Z,78.70
2018-09-24T03:09:57.285Z,79.10
2018-09-24T03:12:27.307Z,78.50
2018-09-24T03:14:57.367Z,78.90
2018-09-24T03:17:27.407Z,79.60
2018-09-24T03:19:57.310Z,79.00
2018-09-24T03:22:27.301Z,79.00
2018-09-24T03:24:57.226Z,78.10
2018-09-24T03:27:27.211Z,78.60
2018-09-24T03:29:57.173Z,78.00
2018-09-24T03:32:27.262Z,78.00
2018-09-24T03:34:57.237Z,78.00
2018-09-24T03:37:27.280Z,78.90
2018-09-24T03:39:57.255Z,78.30
2018-09-24T03:42:27.194Z,78.90
2018-09-24T03:44:57.402Z,78.70
2018-09-24T03:47:27.370Z,77.80
2018-09-24T03:49:57.372Z,77.50
2018-09-24T03:52:27.309Z,77.40
2018-09-24T03:54:57.295Z,76.70
2018-09-24T03:57:27.239Z,77.50
2018-09-24T03:59:57.214Z,77.10
2018-09-24T04:02:27.264Z,77.10
2018-09-24T04:05:02.520Z,76.50
2018-09-24T04:07:37.818Z,76.10
2018-09-24T04:10:13.245Z,76.20
2018-09-24T04:12:49.495Z,76.70
2018-09-24T04:15:24.815Z,77.00
2018-09-24T04:18:00.191Z,75.50
2018-09-24T04:20:35.560Z,75.60
2018-09-24T04:23:12.749Z,75.40
2018-09-24T04:25:48.088Z,75.60
2018-09-24T04:28:23.423Z,75.50
2018-09-24T04:30:58.804Z,75.20
2018-09-24T04:33:34.489Z,74.50
2018-09-24T04:36:09.852Z,74.90
2018-09-24T04:38:45.211Z,74.80
2018-09-24T04:41:20.672Z,75.70
2018-09-24T04:43:56.149Z,75.10
2018-09-24T04:46:31.651Z,75.00
2018-09-24T04:49:07.107Z,75.00
2018-09-24T04:51:42.666Z,74.10
2018-09-24T04:54:18.168Z,73.50
2018-09-24T04:56:53.496Z,73.40
2018-09-24T04:59:28.568Z,74.80
2018-09-24T05:02:03.993Z,74.10
2018-09-24T05:04:39.191Z,74.00
2018-09-24T05:07:14.538Z,73.90
2018-09-24T05:09:49.862Z,73.60
2018-09-24T05:12:25.239Z,73.30
2018-09-24T05:15:00.442Z,73.30
2018-09-24T05:17:35.729Z,72.60
2018-09-24T05:20:12.383Z,73.40
2018-09-24T05:22:47.717Z,73.00
2018-09-24T05:25:22.894Z,71.90
2018-09-24T05:27:58.218Z,71.30
2018-09-24T05:30:33.739Z,71.40
2018-09-24T05:33:08.985Z,71.10
2018-09-24T05:35:44.424Z,71.40
2018-09-24T05:38:20.198Z,70.10
2018-09-24T05:40:55.503Z,70.10
2018-09-24T05:43:31.030Z,70.20
2018-09-24T05:46:06.374Z,69.70
2018-09-24T05:48:41.696Z,69.70
2018-09-24T05:51:17.015Z,69.70
2018-09-24T05:53:52.484Z,69.30
2018-09-24T05:56:27.707Z,68.60
2018-09-24T05:59:03.155Z,68.30
2018-09-24T06:01:39.074Z,67.50
2018-09-24T06:04:14.429Z,66.50
2018-09-24T06:06:49.802Z,66.50
2018-09-24T06:09:25.278Z,66.20
2018-09-24T06:12:00.635Z,66.60
2018-09-24T06:14:35.885Z,66.60
2018-09-24T06:17:11.248Z,66.70
2018-09-24T06:19:46.624Z,66.30
2018-09-24T06:22:21.871Z,66.70
2018-09-24T06:24:57.803Z,66.80
2018-09-24T06:27:32.916Z,66.00
2018-09-24T06:30:08.167Z,65.80
2018-09-24T06:32:43.673Z,65.40
2018-09-24T06:35:19.010Z,65.90
2018-09-24T06:37:54.321Z,64.50
2018-09-24T06:40:29.555Z,62.80
2018-09-24T06:43:04.896Z,63.10
2018-09-24T06:45:40.253Z,63.50
2018-09-24T06:48:15.610Z,62.10
2018-09-24T06:50:50.853Z,62.10
2018-09-24T06:53:26.364Z,63.20
2018-09-24T06:56:01.750Z,61.40
2018-09-24T06:58:37.045Z,60.80
2018-09-24T07:01:12.430Z,60.90
2018-09-24T07:03:47.819Z,60.90
2018-09-24T07:06:23.207Z,59.80
2018-09-24T07:08:58.620Z,59.80
2018-09-24T07:11:33.884Z,59.10
2018-09-24T07:14:09.272Z,58.70
2018-09-24T07:16:44.486Z,58.00
2018-09-24T07:19:19.843Z,57.30
2018-09-24T07:21:55.123Z,57.20
2018-09-24T07:24:30.332Z,56.70
2018-09-24T07:27:05.747Z,55.30
2018-09-24T07:29:41.116Z,55.90
2018-09-24T07:32:16.547Z,55.90
2018-09-24T07:34:51.932Z,56.00
2018-09-24T07:37:27.261Z,55.40
2018-09-24T07:40:02.599Z,54.80
2018-09-24T07:42:38.196Z,55.00
2018-09-24T07:45:13.482Z,54.20
2018-09-24T07:47:48.863Z,54.80
2018-09-24T07:50:24.369Z,54.10
2018-09-24T07:52:59.770Z,53.80
2018-09-24T07:55:35.060Z,53.60
2018-09-24T07:58:10.381Z,53.30
2018-09-24T08:00:45.702Z,53.60
2018-09-24T08:03:20.846Z,52.90
2018-09-24T08:05:56.688Z,53.00
2018-09-24T08:08:31.962Z,52.40
2018-09-24T08:11:07.251Z,52.70
2018-09-24T08:13:42.429Z,51.70
2018-09-24T08:16:17.794Z,51.40
2018-09-24T08:18:53.020Z,50.20
2018-09-24T08:21:28.327Z,51.40
2018-09-24T08:24:03.439Z,51.50
2018-09-24T08:26:38.823Z,51.50
2018-09-24T08:29:14.370Z,50.70
2018-09-24T08:31:49.651Z,50.80
2018-09-24T08:34:25.168Z,49.30
2018-09-24T08:37:00.382Z,48.40
2018-09-24T08:39:35.785Z,48.30
2018-09-24T08:42:10.919Z,47.30
2018-09-24T08:44:46.303Z,48.20
2018-09-24T08:47:21.615Z,48.70
2018-09-24T08:49:56.904Z,49.20
2018-09-24T08:52:31.901Z,47.40
2018-09-24T08:55:07.168Z,47.10
2018-09-24T08:57:42.525Z,45.80
2018-09-24T09:00:17.816Z,45.40
2018-09-24T09:02:53.009Z,46.50
2018-09-24T09:05:28.316Z,45.60
2018-09-24T09:08:03.752Z,45.50
2018-09-24T09:10:39.039Z,44.60
2018-09-24T09:13:14.401Z,44.60
2018-09-24T09:15:50.213Z,44.00
2018-09-24T09:18:25.693Z,44.00
2018-09-24T09:21:00.987Z,44.10
2018-09-24T09:23:36.159Z,44.10
2018-09-24T09:26:11.709Z,44.10
2018-09-24T09:28:46.968Z,44.30
2018-09-24T09:31:22.260Z,44.20
2018-09-24T09:33:57.468Z,44.30
2018-09-24T09:36:32.992Z,44.30
2018-09-24T09:39:08.161Z,43.60
2018-09-24T09:41:43.404Z,43.30
2018-09-24T09:44:18.740Z,43.60
2018-09-24T09:46:54.034Z,43.40
2018-09-24T09:49:29.767Z,43.70
2018-09-24T09:52:05.212Z,43.40
2018-09-24T09:54:40.397Z,42.90
2018-09-24T09:57:15.496Z,42.60
2018-09-24T09:59:50.893Z,42.30
2018-09-24T10:02:26.221Z,42.50
2018-09-24T10:05:01.595Z,41.80
2018-09-24T10:07:36.989Z,41.60
2018-09-24T10:10:12.372Z,41.30
2018-09-24T10:12:47.771Z,41.20
2018-09-24T10:15:23.122Z,40.50
2018-09-24T10:17:58.285Z,41.40
2018-09-24T10:20:33.452Z,41.70
2018-09-24T10:23:08.599Z,42.20
2018-09-24T10:25:44.093Z,42.30
2018-09-24T10:28:19.378Z,42.30
2018-09-24T10:30:54.791Z,41.00
2018-09-24T10:33:30.164Z,40.50
2018-09-24T10:36:05.459Z,41.30
2018-09-24T10:38:40.793Z,42.00
2018-09-24T10:41:16.191Z,41.60
2018-09-24T10:43:51.578Z,41.50
2018-09-24T10:46:26.849Z,41.30
2018-09-24T10:49:02.234Z,40.60
2018-09-24T10:51:37.400Z,40.10
2018-09-24T10:54:12.821Z,39.80
2018-09-24T10:56:48.172Z,39.70
2018-09-24T10:59:23.881Z,39.70
2018-09-24T11:01:59.576Z,37.90
2018-09-24T11:04:35.011Z,37.90
2018-09-24T11:07:10.342Z,38.90
2018-09-24T11:09:45.777Z,38.50
2018-09-24T11:12:21.162Z,37.50
2018-09-24T11:14:56.440Z,37.10
2018-09-24T11:17:31.913Z,36.10
2018-09-24T11:20:07.221Z,36.80
2018-09-24T11:22:42.685Z,36.90
2018-09-24T11:25:17.982Z,36.20
2018-09-24T11:27:53.170Z,36.20
2018-09-24T11:30:28.602Z,36.00
2018-09-24T11:33:03.971Z,34.90
2018-09-24T11:35:39.181Z,36.10
2018-09-24T11:38:14.425Z,36.90
2018-09-24T11:40:49.692Z,35.10
2018-09-24T11:43:24.811Z,35.00
2018-09-24T11:46:00.086Z,35.30
2018-09-24T11:48:35.207Z,34.80
2018-09-24T11:51:10.748Z,34.70
2018-09-24T11:53:46.141Z,35.70
2018-09-24T11:56:21.544Z,38.00
2018-09-24T11:58:57.038Z,37.30
2018-09-24T12:01:32.497Z,56.30
2018-09-24T12:04:07.861Z,53.80
2018-09-24T12:06:43.157Z,52.80
2018-09-24T12:09:18.699Z,50.50
2018-09-24T12:11:54.046Z,52.20
2018-09-24T12:14:29.307Z,51.20
2018-09-24T12:17:04.724Z,52.00
2018-09-24T12:19:39.983Z,52.00
2018-09-24T12:22:15.315Z,56.40
2018-09-24T12:24:50.624Z,56.70
2018-09-24T12:27:25.966Z,58.30
2018-09-24T12:30:01.186Z,59.30
2018-09-24T12:32:36.493Z,59.50
2018-09-24T12:35:11.794Z,59.60
2018-09-24T12:37:46.896Z,57.80
2018-09-24T12:40:22.264Z,56.30
2018-09-24T12:42:57.667Z,56.30
2018-09-24T12:45:33.121Z,56.60
2018-09-24T12:48:08.253Z,56.50
2018-09-24T12:50:43.422Z,56.10
2018-09-24T12:53:18.767Z,59.00
2018-09-24T12:55:53.863Z,59.30
2018-09-24T12:58:29.174Z,60.40
2018-09-24T13:01:04.454Z,61.10
2018-09-24T13:03:39.742Z,59.20
2018-09-24T13:06:15.509Z,59.60
2018-09-24T13:08:50.930Z,60.60
2018-09-24T13:11:26.351Z,58.30
2018-09-24T13:14:01.717Z,56.00
2018-09-24T13:16:36.803Z,57.00
2018-09-24T13:19:12.259Z,54.70
2018-09-24T13:21:47.747Z,54.00
2018-09-24T13:24:23.040Z,53.10
2018-09-24T13:26:58.275Z,51.50
2018-09-24T13:29:33.722Z,50.20
2018-09-24T13:32:09.256Z,50.60
2018-09-24T13:34:44.611Z,50.70
2018-09-24T13:37:19.944Z,51.30
2018-09-24T13:39:55.543Z,48.50
2018-09-24T13:42:30.975Z,48.60
2018-09-24T13:45:06.099Z,46.20
2018-09-24T13:47:41.515Z,47.10
2018-09-24T13:50:16.651Z,47.30
2018-09-24T13:52:51.874Z,47.60
2018-09-24T13:55:27.104Z,47.70
2018-09-24T13:58:02.559Z,49.20
2018-09-24T14:00:37.829Z,49.00
2018-09-24T14:03:13.275Z,50.10
2018-09-24T14:05:48.537Z,49.70
2018-09-24T14:08:24.045Z,49.60
2018-09-24T14:10:59.432Z,50.80
2018-09-24T14:13:35.030Z,49.10
2018-09-24T14:16:10.240Z,50.50
2018-09-24T14:18:45.489Z,49.60
2018-09-24T14:21:20.702Z,50.70
2018-09-24T14:23:56.104Z,50.80
2018-09-24T14:26:31.262Z,50.30
2018-09-24T14:29:06.574Z,48.50
2018-09-24T14:31:41.785Z,48.70
2018-09-24T14:34:17.304Z,48.00
2018-09-24T14:36:52.601Z,47.80
2018-09-24T14:39:27.852Z,47.70
2018-09-24T14:42:03.145Z,49.30
2018-09-24T14:44:38.509Z,48.30
2018-09-24T14:47:13.592Z,49.10
2018-09-24T14:49:48.919Z,48.60
2018-09-24T14:52:23.946Z,49.00
2018-09-24T14:54:59.385Z,48.40
2018-09-24T14:57:34.560Z,46.80
2018-09-24T15:00:09.761Z,47.30
2018-09-24T15:02:45.021Z,48.50
2018-09-24T15:05:20.403Z,46.90
2018-09-24T15:07:55.820Z,46.70
2018-09-24T15:10:30.945Z,45.20
2018-09-24T15:13:06.140Z,45.40
2018-09-24T15:15:41.682Z,46.40
2018-09-24T15:18:17.159Z,48.10
2018-09-24T15:20:52.477Z,48.40
2018-09-24T15:23:27.762Z,49.10
2018-09-24T15:26:02.961Z,49.20
2018-09-24T15:28:38.390Z,49.10
2018-09-24T15:31:13.685Z,52.30
2018-09-24T15:33:48.913Z,52.60
2018-09-24T15:36:24.356Z,51.50
2018-09-24T15:38:59.562Z,51.10
2018-09-24T15:41:34.909Z,52.30
2018-09-24T15:44:10.620Z,55.00
2018-09-24T15:46:46.015Z,55.30
2018-09-24T15:49:21.467Z,56.60
2018-09-24T15:51:56.737Z,56.60
2018-09-24T15:54:32.122Z,57.10
2018-09-24T15:57:07.436Z,56.80
2018-09-24T15:59:42.505Z,57.70
2018-09-24T16:02:17.620Z,55.50
2018-09-24T16:04:53.036Z,56.70
2018-09-24T16:07:28.356Z,55.80
2018-09-24T16:10:03.473Z,56.20
2018-09-24T16:12:38.871Z,57.60
2018-09-24T16:15:14.048Z,57.20
2018-09-24T16:17:49.427Z,57.20
2018-09-24T16:20:24.597Z,60.00
2018-09-24T16:22:59.757Z,59.10
2018-09-24T16:25:35.076Z,58.60
2018-09-24T16:28:10.419Z,59.00
2018-09-24T16:30:45.690Z,58.70
2018-09-24T16:33:20.944Z,60.00
2018-09-24T16:35:56.313Z,59.00
2018-09-24T16:38:32.111Z,58.70
2018-09-24T16:41:07.348Z,58.80
2018-09-24T16:43:42.857Z,57.20
2018-09-24T16:46:18.083Z,56.90
2018-09-24T16:48:53.518Z,56.80
2018-09-24T16:51:28.941Z,55.00
2018-09-24T16:54:04.273Z,55.40
2018-09-24T16:56:39.703Z,56.20
2018-09-24T16:59:15.200Z,57.40
2018-09-24T17:01:50.425Z,54.40
2018-09-24T17:04:25.610Z,53.90
2018-09-24T17:07:00.986Z,51.50
2018-09-24T17:09:36.259Z,51.80
2018-09-24T17:12:11.951Z,50.20
2018-09-24T17:14:47.141Z,49.50
2018-09-24T17:17:22.286Z,49.50
2018-09-24T17:19:57.690Z,48.30
2018-09-24T17:22:33.071Z,47.90
2018-09-24T17:25:08.620Z,47.40
2018-09-24T17:27:44.037Z,47.70
2018-09-24T17:30:19.333Z,48.30
2018-09-24T17:32:54.594Z,48.20
2018-09-24T17:35:30.324Z,47.10
2018-09-24T17:38:05.643Z,48.10
2018-09-24T17:40:40.773Z,47.60
2018-09-24T17:43:16.005Z,49.00
2018-09-24T17:45:51.591Z,47.90
2018-09-24T17:48:26.732Z,46.90
2018-09-24T17:51:01.970Z,46.90
2018-09-24T17:53:37.217Z,47.60
2018-09-24T17:56:12.700Z,48.30
2018-09-24T17:58:48.023Z,47.60
2018-09-24T18:01:23.292Z,47.70
2018-09-24T18:03:58.585Z,48.20
2018-09-24T18:06:34.010Z,48.30
2018-09-24T18:09:10.097Z,48.20
2018-09-24T18:11:45.823Z,49.00
2018-09-24T18:14:20.969Z,48.60
2018-09-24T18:16:56.279Z,48.80
2018-09-24T18:19:31.747Z,48.80
2018-09-24T18:22:07.123Z,48.30
2018-09-24T18:24:42.383Z,49.10
2018-09-24T18:27:17.800Z,47.30
2018-09-24T18:29:53.082Z,47.60
2018-09-24T18:32:28.292Z,47.50
2018-09-24T18:35:03.536Z,46.70
2018-09-24T18:37:38.866Z,46.70
2018-09-24T18:40:14.301Z,47.40
2018-09-24T18:42:49.682Z,48.50
2018-09-24T18:45:25.014Z,47.90
2018-09-24T18:48:00.241Z,48.50
2018-09-24T18:50:35.667Z,48.80
2018-09-24T18:53:10.769Z,49.00
2018-09-24T18:55:46.059Z,48.20
2018-09-24T18:58:21.351Z,49.90
2018-09-24T19:00:56.914Z,49.30
2018-09-24T19:03:32.163Z,49.20
2018-09-24T19:06:07.431Z,48.70
2018-09-24T19:08:42.762Z,49.30
2018-09-24T19:11:27.646Z,50.00
2018-09-24T19:13:53.427Z,49.60
2018-09-24T19:16:28.840Z,49.20
2018-09-24T19:19:04.334Z,49.20
2018-09-24T19:21:39.614Z,48.00
2018-09-24T19:24:15.010Z,47.90
2018-09-24T19:26:50.427Z,46.50
2018-09-24T19:29:25.677Z,47.20
2018-09-24T19:32:01.057Z,47.20
2018-09-24T19:34:36.410Z,47.60
2018-09-24T19:37:12.021Z,47.40
2018-09-24T19:39:47.021Z,47.20
2018-09-24T19:42:22.467Z,47.60
2018-09-24T19:44:57.700Z,47.20
2018-09-24T19:47:33.135Z,47.10
2018-09-24T19:50:08.394Z,47.10
2018-09-24T19:52:43.819Z,47.90
2018-09-24T19:55:19.089Z,47.90
2018-09-24T19:57:54.247Z,47.60
2018-09-24T20:00:29.711Z,47.80
2018-09-24T20:03:05.060Z,48.10
2018-09-24T20:05:40.463Z,48.20
2018-09-24T20:08:15.831Z,48.20
2018-09-24T20:10:51.950Z,49.40
2018-09-24T20:13:27.271Z,49.60
2018-09-24T20:16:02.784Z,50.20
2018-09-24T20:18:38.271Z,50.50
2018-09-24T20:21:13.685Z,50.90
2018-09-24T20:23:49.109Z,51.10
2018-09-24T20:26:24.211Z,51.10
2018-09-24T20:28:59.675Z,51.10
2018-09-24T20:31:35.011Z,52.40
2018-09-24T20:34:10.459Z,52.00
2018-09-24T20:36:45.578Z,52.00
2018-09-24T20:39:21.017Z,51.50
2018-09-24T20:41:56.354Z,51.80
2018-09-24T20:44:31.838Z,52.00
2018-09-24T20:47:07.414Z,52.50
2018-09-24T20:49:42.614Z,52.70
2018-09-24T20:52:17.853Z,52.10
2018-09-24T20:54:53.497Z,52.50
2018-09-24T20:57:29.163Z,53.30
2018-09-24T21:00:04.407Z,52.30
2018-09-24T21:02:39.878Z,53.00
2018-09-24T21:05:15.319Z,52.90
2018-09-24T21:07:50.573Z,52.20
2018-09-24T21:10:25.853Z,52.20
2018-09-24T21:13:01.203Z,52.50
2018-09-24T21:15:36.642Z,52.30
2018-09-24T21:18:11.968Z,51.70
2018-09-24T21:20:47.356Z,50.90
2018-09-24T21:23:22.612Z,50.90
2018-09-24T21:25:57.738Z,50.90
2018-09-24T21:28:33.158Z,50.90
2018-09-24T21:31:08.591Z,50.60
2018-09-24T21:33:43.914Z,50.30
2018-09-24T21:36:19.180Z,50.50
2018-09-24T21:38:54.334Z,50.60
2018-09-24T21:41:29.505Z,50.70
2018-09-24T21:44:04.583Z,50.70
2018-09-24T21:46:40.084Z,51.00
2018-09-24T21:49:15.330Z,50.30
2018-09-24T21:51:50.874Z,50.90
2018-09-24T21:54:26.297Z,50.80
2018-09-24T21:59:42.024Z,50.90
2018-09-24T22:02:17.463Z,51.50
2018-09-24T22:04:52.863Z,51.60
2018-09-24T22:07:28.161Z,51.70
2018-09-24T22:10:03.590Z,52.50
2018-09-24T22:12:39.030Z,52.20
2018-09-24T22:15:14.318Z,52.40
2018-09-24T22:17:49.575Z,52.60
2018-09-24T22:20:24.923Z,53.00
2018-09-24T22:23:00.257Z,53.00
2018-09-24T22:25:35.333Z,53.30
2018-09-24T22:28:10.525Z,53.60
2018-09-24T22:30:45.717Z,53.80
2018-09-24T22:33:28.031Z,54.00
2018-09-24T22:36:03.321Z,54.40
2018-09-24T22:38:38.641Z,54.70
2018-09-24T22:41:13.971Z,54.80
2018-09-24T22:43:49.386Z,54.80
2018-09-24T22:46:24.644Z,54.80
2018-09-24T22:49:00.009Z,54.70
2018-09-24T22:51:35.361Z,54.70
2018-09-24T22:54:10.771Z,54.70
2018-09-24T22:56:46.124Z,55.10
2018-09-24T22:59:21.346Z,55.40
2018-09-24T23:01:56.629Z,55.50
2018-09-24T23:04:31.863Z,55.80
2018-09-24T23:07:07.194Z,55.90
2018-09-24T23:09:42.255Z,55.90
2018-09-24T23:12:17.804Z,56.10
2018-09-24T23:14:53.194Z,56.20
2018-09-24T23:17:28.358Z,56.50
2018-09-24T23:20:03.502Z,56.70
2018-09-24T23:22:38.838Z,56.70
2018-09-24T23:25:14.178Z,57.00
2018-09-24T23:27:49.587Z,57.30
2018-09-24T23:30:24.929Z,57.50
2018-09-24T23:33:00.111Z,57.50
2018-09-24T23:35:35.521Z,57.60
2018-09-24T23:38:10.693Z,57.60
2018-09-24T23:40:45.881Z,57.80
2018-09-24T23:43:21.282Z,58.10
2018-09-24T23:45:57.041Z,58.30
2018-09-24T23:48:32.492Z,57.90
2018-09-24T23:51:07.669Z,58.00
2018-09-24T23:53:43.046Z,58.60
2018-09-24T23:56:18.644Z,58.70
2018-09-24T23:58:53.932Z,58.80
